createdAt,value
2017-06-08T00:00:07.356Z,960.70
2017-06-08T00:04:07.605Z,960.74
2017-06-08T00:07:07.833Z,960.68
2017-06-08T00:08:07.529Z,960.70
2017-06-08T00:12:08.086Z,960.77
2017-06-08T00:14:07.994Z,960.74
2017-06-08T00:15:07.412Z,960.77
2017-06-08T00:21:07.972Z,960.70
2017-06-08T00:22:07.656Z,960.67
2017-06-08T00:23:07.391Z,960.72
2017-06-08T00:24:07.954Z,960.71
2017-06-08T00:25:07.579Z,960.74
2017-06-08T00:26:08.266Z,960.71
2017-06-08T00:27:07.929Z,960.70
2017-06-08T00:28:07.582Z,960.73
2017-06-08T00:29:08.237Z,960.70
2017-06-08T00:30:17.979Z,960.76
2017-06-08T00:31:07.635Z,960.76
2017-06-08T00:32:09.599Z,960.74
2017-06-08T00:33:07.915Z,960.78
2017-06-08T00:34:08.694Z,960.70
2017-06-08T00:35:08.482Z,960.74
2017-06-08T00:36:09.212Z,960.74
2017-06-08T00:37:08.720Z,960.76
2017-06-08T00:38:08.420Z,960.75
2017-06-08T00:39:09.217Z,960.73
2017-06-08T00:40:07.583Z,960.73
2017-06-08T00:41:08.377Z,960.72
2017-06-08T00:42:09.274Z,960.77
2017-06-08T00:43:07.631Z,960.70
2017-06-08T00:44:07.352Z,960.68
2017-06-08T00:45:09.163Z,960.68
2017-06-08T00:46:08.723Z,960.68
2017-06-08T00:47:07.266Z,960.70
2017-06-08T00:48:09.228Z,960.67
2017-06-08T00:49:07.608Z,960.71
2017-06-08T00:50:08.209Z,960.67
2017-06-08T00:51:09.236Z,960.67
2017-06-08T00:52:07.542Z,960.65
2017-06-08T00:53:09.638Z,960.66
2017-06-08T00:54:09.242Z,960.67
2017-06-08T00:55:08.643Z,960.69
2017-06-08T00:56:08.227Z,960.68
2017-06-08T00:57:08.004Z,960.63
2017-06-08T00:58:07.545Z,960.62
2017-06-08T00:59:09.892Z,960.68
2017-06-08T01:00:09.030Z,960.69
2017-06-08T01:01:07.533Z,960.70
2017-06-08T01:02:08.216Z,960.67
2017-06-08T01:03:08.996Z,960.65
2017-06-08T01:04:08.691Z,960.63
2017-06-08T01:05:09.365Z,960.66
2017-06-08T01:06:09.470Z,960.63
2017-06-08T01:07:08.635Z,960.62
2017-06-08T01:08:08.195Z,960.65
2017-06-08T01:09:07.827Z,960.66
2017-06-08T01:10:07.538Z,960.71
2017-06-08T01:11:09.590Z,960.65
2017-06-08T01:12:09.010Z,960.64
2017-06-08T01:13:08.643Z,960.60
2017-06-08T01:14:08.226Z,960.61
2017-06-08T01:15:08.003Z,960.63
2017-06-08T01:16:07.643Z,960.59
2017-06-08T01:17:07.428Z,960.60
2017-06-08T01:18:08.063Z,960.57
2017-06-08T01:19:08.851Z,960.58
2017-06-08T01:20:07.424Z,960.60
2017-06-08T01:21:08.177Z,960.60
2017-06-08T01:22:07.808Z,960.55
2017-06-08T01:23:07.401Z,960.58
2017-06-08T01:24:08.106Z,960.55
2017-06-08T01:25:07.731Z,960.55
2017-06-08T01:26:07.385Z,960.57
2017-06-08T01:27:08.114Z,960.58
2017-06-08T01:28:07.720Z,960.56
2017-06-08T01:29:07.381Z,960.54
2017-06-08T01:30:08.092Z,960.50
2017-06-08T01:31:08.831Z,960.52
2017-06-08T01:32:07.417Z,960.51
2017-06-08T01:33:08.018Z,960.50
2017-06-08T01:34:07.665Z,960.47
2017-06-08T01:35:07.337Z,960.56
2017-06-08T01:36:07.975Z,960.54
2017-06-08T01:37:07.705Z,960.56
2017-06-08T01:38:07.357Z,960.56
2017-06-08T01:39:08.011Z,960.58
2017-06-08T01:40:07.676Z,960.60
2017-06-08T01:41:07.271Z,960.59
2017-06-08T01:42:07.995Z,960.60
2017-06-08T01:43:07.644Z,960.56
2017-06-08T01:44:07.283Z,960.62
2017-06-08T01:45:08.007Z,960.65
2017-06-08T01:46:07.668Z,960.57
2017-06-08T01:47:07.337Z,960.58
2017-06-08T01:48:07.993Z,960.58
2017-06-08T01:49:07.625Z,960.63
2017-06-08T01:50:07.310Z,960.57
2017-06-08T01:51:07.977Z,960.56
2017-06-08T01:52:07.690Z,960.60
2017-06-08T01:53:07.307Z,960.61
2017-06-08T01:54:08.046Z,960.59
2017-06-08T01:55:07.569Z,960.61
2017-06-08T01:56:08.249Z,960.60
2017-06-08T01:57:07.916Z,960.63
2017-06-08T01:58:08.564Z,960.61
2017-06-08T01:59:08.220Z,960.63
2017-06-08T02:00:07.849Z,960.64
2017-06-08T02:01:07.568Z,960.63
2017-06-08T02:02:15.747Z,960.64
2017-06-08T02:03:07.848Z,960.63
2017-06-08T02:04:07.495Z,960.60
2017-06-08T02:05:09.288Z,960.59
2017-06-08T02:06:07.920Z,960.63
2017-06-08T02:07:08.595Z,960.57
2017-06-08T02:08:08.170Z,960.65
2017-06-08T02:09:07.876Z,960.62
2017-06-08T02:10:07.477Z,960.61
2017-06-08T02:11:11.289Z,960.63
2017-06-08T02:12:07.824Z,960.66
2017-06-08T02:14:08.083Z,960.65
2017-06-08T02:15:07.716Z,960.69
2017-06-08T02:16:07.419Z,960.70
2017-06-08T02:17:08.154Z,960.66
2017-06-08T02:18:07.892Z,960.71
2017-06-08T02:21:08.537Z,960.70
2017-06-08T02:22:09.332Z,960.73
2017-06-08T02:23:07.763Z,960.71
2017-06-08T02:24:07.409Z,960.74
2017-06-08T02:25:08.214Z,960.78
2017-06-08T02:26:09.020Z,960.74
2017-06-08T02:27:08.459Z,960.74
2017-06-08T02:29:07.847Z,960.76
2017-06-08T02:30:08.077Z,960.72
2017-06-08T02:34:08.656Z,960.72
2017-06-08T02:35:08.225Z,960.78
2017-06-08T02:36:09.043Z,960.78
2017-06-08T02:37:08.588Z,960.81
2017-06-08T02:38:08.142Z,960.78
2017-06-08T02:39:09.003Z,960.76
2017-06-08T02:40:08.502Z,960.74
2017-06-08T02:41:08.101Z,960.75
2017-06-08T02:42:08.853Z,960.70
2017-06-08T02:43:07.419Z,960.69
2017-06-08T02:44:09.348Z,960.67
2017-06-08T02:45:08.834Z,960.71
2017-06-08T02:46:07.386Z,960.67
2017-06-08T02:47:08.027Z,960.61
2017-06-08T02:48:08.791Z,960.64
2017-06-08T02:49:07.405Z,960.68
2017-06-08T02:50:09.399Z,960.69
2017-06-08T02:51:08.822Z,960.64
2017-06-08T02:52:08.451Z,960.62
2017-06-08T02:53:08.008Z,960.69
2017-06-08T02:54:07.701Z,960.67
2017-06-08T02:55:07.431Z,960.68
2017-06-08T02:56:08.097Z,960.70
2017-06-08T02:57:07.669Z,960.69
2017-06-08T02:59:07.777Z,960.63
2017-06-08T03:00:07.546Z,960.70
2017-06-08T03:01:08.256Z,960.70
2017-06-08T03:02:08.965Z,960.70
2017-06-08T03:03:07.485Z,960.70
2017-06-08T03:04:08.149Z,960.73
2017-06-08T03:05:07.857Z,960.74
2017-06-08T03:06:07.521Z,960.70
2017-06-08T03:07:07.269Z,960.72
2017-06-08T03:08:07.902Z,960.70
2017-06-08T03:09:07.581Z,960.65
2017-06-08T03:10:08.217Z,960.67
2017-06-08T03:12:08.089Z,960.71
2017-06-08T03:13:08.202Z,960.71
2017-06-08T03:14:08.965Z,960.65
2017-06-08T03:15:08.561Z,960.68
2017-06-08T03:16:08.313Z,960.70
2017-06-08T03:17:07.920Z,960.65
2017-06-08T03:18:08.873Z,960.64
2017-06-08T03:20:07.503Z,960.64
2017-06-08T03:21:09.136Z,960.64
2017-06-08T03:22:08.682Z,960.62
2017-06-08T03:23:07.249Z,960.64
2017-06-08T03:24:07.869Z,960.64
2017-06-08T03:25:08.640Z,960.61
2017-06-08T03:26:13.703Z,960.63
2017-06-08T03:27:09.096Z,960.61
2017-06-08T03:28:07.578Z,960.58
2017-06-08T03:29:08.329Z,960.65
2017-06-08T03:30:07.910Z,960.55
2017-06-08T03:31:12.942Z,960.58
2017-06-08T03:32:08.231Z,960.54
2017-06-08T03:33:07.851Z,960.53
2017-06-08T03:34:08.563Z,960.51
2017-06-08T03:35:08.175Z,960.54
2017-06-08T03:36:07.838Z,960.52
2017-06-08T03:37:07.566Z,960.48
2017-06-08T03:38:08.158Z,960.53
2017-06-08T03:39:07.738Z,960.48
2017-06-08T03:40:07.425Z,960.52
2017-06-08T03:41:09.258Z,960.48
2017-06-08T03:42:07.700Z,960.49
2017-06-08T03:43:07.411Z,960.51
2017-06-08T03:44:08.021Z,960.51
2017-06-08T03:45:07.693Z,960.48
2017-06-08T03:47:07.495Z,960.49
2017-06-08T03:48:09.213Z,960.51
2017-06-08T03:50:07.471Z,960.44
2017-06-08T03:51:09.459Z,960.54
2017-06-08T03:52:07.779Z,960.49
2017-06-08T03:53:07.519Z,960.54
2017-06-08T03:54:08.100Z,960.53
2017-06-08T03:55:07.780Z,960.56
2017-06-08T03:56:07.406Z,960.53
2017-06-08T03:57:08.088Z,960.50
2017-06-08T03:58:07.746Z,960.50
2017-06-08T03:59:07.356Z,960.44
2017-06-08T04:00:08.165Z,960.50
2017-06-08T04:02:07.398Z,960.46
2017-06-08T04:04:07.376Z,960.48
2017-06-08T04:06:07.713Z,960.48
2017-06-08T04:09:07.672Z,960.46
2017-06-08T04:10:07.868Z,960.49
2017-06-08T04:12:07.622Z,960.49
2017-06-08T04:14:07.389Z,960.53
2017-06-08T04:15:08.147Z,960.53
2017-06-08T04:18:08.024Z,960.52
2017-06-08T04:21:07.985Z,960.57
2017-06-08T04:22:08.732Z,960.54
2017-06-08T04:23:08.321Z,960.53
2017-06-08T04:24:09.127Z,960.53
2017-06-08T04:25:10.268Z,960.52
2017-06-08T04:26:09.196Z,960.53
2017-06-08T04:27:08.756Z,960.53
2017-06-08T04:28:08.393Z,960.54
2017-06-08T04:29:09.069Z,960.54
2017-06-08T04:30:08.626Z,960.57
2017-06-08T04:31:08.461Z,960.56
2017-06-08T04:34:14.271Z,960.59
2017-06-08T04:35:07.264Z,960.55
2017-06-08T04:41:07.666Z,960.51
2017-06-08T04:42:07.312Z,960.51
2017-06-08T04:43:09.148Z,960.51
2017-06-08T04:44:08.772Z,960.50
2017-06-08T04:45:08.410Z,960.47
2017-06-08T04:46:08.028Z,960.49
2017-06-08T04:47:07.658Z,960.45
2017-06-08T04:48:07.351Z,960.49
2017-06-08T04:49:09.113Z,960.43
2017-06-08T04:50:07.633Z,960.46
2017-06-08T04:51:07.351Z,960.43
2017-06-08T04:52:07.982Z,960.40
2017-06-08T04:53:08.186Z,960.44
2017-06-08T04:54:07.841Z,960.43
2017-06-08T04:55:08.623Z,960.42
2017-06-08T04:56:08.237Z,960.40
2017-06-08T04:57:07.895Z,960.43
2017-06-08T04:58:07.539Z,960.44
2017-06-08T04:59:08.160Z,960.45
2017-06-08T05:00:07.849Z,960.47
2017-06-08T05:01:08.564Z,960.44
2017-06-08T05:02:08.167Z,960.46
2017-06-08T05:03:07.817Z,960.50
2017-06-08T05:04:07.485Z,960.46
2017-06-08T05:05:08.137Z,960.42
2017-06-08T05:06:08.985Z,960.41
2017-06-08T05:07:07.490Z,960.43
2017-06-08T05:08:08.121Z,960.43
2017-06-08T05:09:07.817Z,960.44
2017-06-08T05:10:08.489Z,960.41
2017-06-08T05:11:08.183Z,960.48
2017-06-08T05:12:07.750Z,960.41
2017-06-08T05:13:07.886Z,960.43
2017-06-08T05:18:08.436Z,960.40
2017-06-08T05:19:07.942Z,960.35
2017-06-08T05:20:07.616Z,960.37
2017-06-08T05:24:08.224Z,960.30
2017-06-08T05:25:07.815Z,960.30
2017-06-08T05:26:07.513Z,960.28
2017-06-08T05:27:08.165Z,960.27
2017-06-08T05:30:08.036Z,960.23
2017-06-08T05:34:07.271Z,960.25
2017-06-08T05:37:08.453Z,960.20
2017-06-08T05:39:07.303Z,960.16
2017-06-08T05:40:07.937Z,960.10
2017-06-08T05:49:07.388Z,960.13
2017-06-08T05:53:07.456Z,960.05
2017-06-08T05:54:08.189Z,960.05
2017-06-08T05:56:09.296Z,960.04
2017-06-08T05:57:07.690Z,960.00
2017-06-08T05:58:08.451Z,960.04
2017-06-08T05:59:09.187Z,959.98
2017-06-08T06:00:07.658Z,960.03
2017-06-08T06:01:07.349Z,959.98
2017-06-08T06:02:09.078Z,960.00
2017-06-08T06:03:08.741Z,960.00
2017-06-08T06:04:07.324Z,960.01
2017-06-08T06:05:09.034Z,960.03
2017-06-08T06:06:08.697Z,960.00
2017-06-08T06:07:07.229Z,960.01
2017-06-08T06:08:08.951Z,960.04
2017-06-08T06:09:08.615Z,960.02
2017-06-08T06:10:09.306Z,959.98
2017-06-08T06:11:08.909Z,959.99
2017-06-08T06:12:07.514Z,959.99
2017-06-08T06:13:08.174Z,960.05
2017-06-08T06:15:09.301Z,960.05
2017-06-08T06:16:07.637Z,960.01
2017-06-08T06:17:08.440Z,959.99
2017-06-08T06:18:08.122Z,959.99
2017-06-08T06:19:07.829Z,959.95
2017-06-08T06:20:07.463Z,959.93
2017-06-08T06:24:08.215Z,959.91
2017-06-08T06:25:07.770Z,959.93
2017-06-08T06:26:07.478Z,959.92
2017-06-08T06:27:08.116Z,959.91
2017-06-08T06:28:08.849Z,959.88
2017-06-08T06:29:08.547Z,959.91
2017-06-08T06:30:09.328Z,959.88
2017-06-08T06:31:07.786Z,959.85
2017-06-08T06:32:08.500Z,959.89
2017-06-08T06:33:09.333Z,959.88
2017-06-08T06:34:07.857Z,959.88
2017-06-08T06:35:08.539Z,959.91
2017-06-08T06:36:08.127Z,959.87
2017-06-08T06:37:08.842Z,959.88
2017-06-08T06:38:07.396Z,959.86
2017-06-08T06:39:09.261Z,959.86
2017-06-08T06:40:07.770Z,959.84
2017-06-08T06:41:08.538Z,959.83
2017-06-08T06:42:08.054Z,959.81
2017-06-08T06:43:08.855Z,959.83
2017-06-08T06:44:07.409Z,959.86
2017-06-08T06:45:09.125Z,959.88
2017-06-08T06:46:09.050Z,959.87
2017-06-08T06:47:08.459Z,959.88
2017-06-08T06:48:08.385Z,959.90
2017-06-08T06:49:09.054Z,959.87
2017-06-08T06:50:07.597Z,959.89
2017-06-08T06:51:07.266Z,959.87
2017-06-08T06:52:07.907Z,959.83
2017-06-08T06:53:07.644Z,959.84
2017-06-08T06:54:07.208Z,959.81
2017-06-08T06:55:07.915Z,959.80
2017-06-08T06:56:07.501Z,959.78
2017-06-08T06:57:08.179Z,959.79
2017-06-08T06:58:07.816Z,959.79
2017-06-08T06:59:08.605Z,959.77
2017-06-08T07:00:07.220Z,959.79
2017-06-08T07:01:08.985Z,959.79
2017-06-08T07:02:08.656Z,959.71
2017-06-08T07:03:09.310Z,959.76
2017-06-08T07:04:08.984Z,959.73
2017-06-08T07:05:08.605Z,959.75
2017-06-08T07:06:09.252Z,959.77
2017-06-08T07:07:07.802Z,959.74
2017-06-08T07:08:08.623Z,959.73
2017-06-08T07:09:09.256Z,959.76
2017-06-08T07:10:08.832Z,959.74
2017-06-08T07:11:08.510Z,959.74
2017-06-08T07:12:09.081Z,959.76
2017-06-08T07:14:07.605Z,959.77
2017-06-08T07:15:08.292Z,959.80
2017-06-08T07:16:07.892Z,959.76
2017-06-08T07:17:07.594Z,959.70
2017-06-08T07:18:07.312Z,959.67
2017-06-08T07:19:08.014Z,959.68
2017-06-08T07:20:08.750Z,959.65
2017-06-08T07:21:07.314Z,959.64
2017-06-08T07:22:08.124Z,959.65
2017-06-08T07:23:07.720Z,959.65
2017-06-08T07:24:07.448Z,959.63
2017-06-08T07:26:07.834Z,959.66
2017-06-08T07:27:07.366Z,959.66
2017-06-08T07:28:08.023Z,959.60
2017-06-08T07:29:07.763Z,959.57
2017-06-08T07:30:07.373Z,959.57
2017-06-08T07:31:08.076Z,959.56
2017-06-08T07:32:08.804Z,959.58
2017-06-08T07:33:07.341Z,959.56
2017-06-08T07:34:08.060Z,959.58
2017-06-08T07:35:07.631Z,959.62
2017-06-08T07:36:07.346Z,959.51
2017-06-08T07:37:07.982Z,959.54
2017-06-08T07:38:07.646Z,959.53
2017-06-08T07:39:07.423Z,959.51
2017-06-08T07:40:07.996Z,959.55
2017-06-08T07:41:07.632Z,959.51
2017-06-08T07:42:07.298Z,959.47
2017-06-08T07:43:07.947Z,959.43
2017-06-08T07:44:07.617Z,959.42
2017-06-08T07:45:07.254Z,959.42
2017-06-08T07:46:07.924Z,959.43
2017-06-08T07:47:07.578Z,959.46
2017-06-08T07:48:07.325Z,959.44
2017-06-08T07:51:07.296Z,959.46
2017-06-08T07:53:08.527Z,959.44
2017-06-08T07:55:08.049Z,959.47
2017-06-08T07:56:08.902Z,959.42
2017-06-08T07:57:07.396Z,959.46
2017-06-08T07:58:09.234Z,959.45
2017-06-08T07:59:08.906Z,959.46
2017-06-08T08:00:07.442Z,959.47
2017-06-08T08:01:08.150Z,959.50
2017-06-08T08:02:07.830Z,959.44
2017-06-08T08:03:07.412Z,959.46
2017-06-08T08:04:08.091Z,959.44
2017-06-08T08:05:07.849Z,959.43
2017-06-08T08:06:07.639Z,959.43
2017-06-08T08:07:08.210Z,959.44
2017-06-08T08:08:07.799Z,959.50
2017-06-08T08:09:07.515Z,959.45
2017-06-08T08:10:07.293Z,959.45
2017-06-08T08:11:07.910Z,959.42
2017-06-08T08:12:07.996Z,959.37
2017-06-08T08:13:07.239Z,959.43
2017-06-08T08:14:07.969Z,959.37
2017-06-08T08:15:07.665Z,959.36
2017-06-08T08:16:07.348Z,959.36
2017-06-08T08:17:09.166Z,959.38
2017-06-08T08:18:08.982Z,959.41
2017-06-08T08:19:07.618Z,959.41
2017-06-08T08:20:08.343Z,959.40
2017-06-08T08:21:09.104Z,959.40
2017-06-08T08:22:08.814Z,959.35
2017-06-08T08:23:08.424Z,959.33
2017-06-08T08:24:09.023Z,959.31
2017-06-08T08:25:07.628Z,959.31
2017-06-08T08:26:08.358Z,959.27
2017-06-08T08:27:09.061Z,959.24
2017-06-08T08:28:07.656Z,959.23
2017-06-08T08:29:08.323Z,959.28
2017-06-08T08:30:07.873Z,959.22
2017-06-08T08:31:07.571Z,959.20
2017-06-08T08:32:07.204Z,959.21
2017-06-08T08:33:09.023Z,959.19
2017-06-08T08:34:08.662Z,959.20
2017-06-08T08:35:07.257Z,959.14
2017-06-08T08:36:09.055Z,959.17
2017-06-08T08:37:07.562Z,959.17
2017-06-08T08:38:08.335Z,959.20
2017-06-08T08:39:07.885Z,959.21
2017-06-08T08:40:07.628Z,959.24
2017-06-08T08:41:07.250Z,959.25
2017-06-08T08:42:08.966Z,959.23
2017-06-08T08:43:07.569Z,959.20
2017-06-08T08:44:09.300Z,959.14
2017-06-08T08:45:07.876Z,959.17
2017-06-08T08:46:07.512Z,959.16
2017-06-08T08:47:08.302Z,959.12
2017-06-08T08:48:08.979Z,959.12
2017-06-08T08:49:08.643Z,959.12
2017-06-08T08:50:08.234Z,959.07
2017-06-08T08:51:07.863Z,959.06
2017-06-08T08:52:07.529Z,959.08
2017-06-08T08:53:08.177Z,959.03
2017-06-08T08:54:08.051Z,959.07
2017-06-08T08:55:07.525Z,959.06
2017-06-08T08:56:08.134Z,959.04
2017-06-08T08:57:07.804Z,959.03
2017-06-08T08:58:08.540Z,959.08
2017-06-08T08:59:09.203Z,959.08
2017-06-08T09:00:07.791Z,959.13
2017-06-08T09:01:08.469Z,959.10
2017-06-08T09:02:08.076Z,959.11
2017-06-08T09:03:07.784Z,959.09
2017-06-08T09:04:07.461Z,959.11
2017-06-08T09:05:09.249Z,959.15
2017-06-08T09:06:08.897Z,959.10
2017-06-08T09:07:08.610Z,959.10
2017-06-08T09:08:09.218Z,959.08
2017-06-08T09:09:07.803Z,959.09
2017-06-08T09:10:07.529Z,959.10
2017-06-08T09:11:09.296Z,959.06
2017-06-08T09:12:08.900Z,959.09
2017-06-08T09:13:07.466Z,959.07
2017-06-08T09:14:08.193Z,959.08
2017-06-08T09:15:07.800Z,959.10
2017-06-08T09:16:07.556Z,959.12
2017-06-08T09:17:08.238Z,959.12
2017-06-08T09:18:07.997Z,959.08
2017-06-08T09:19:07.583Z,959.08
2017-06-08T09:20:07.252Z,959.04
2017-06-08T09:21:07.857Z,959.08
2017-06-08T09:22:07.609Z,959.08
2017-06-08T09:23:08.209Z,959.09
2017-06-08T09:24:07.835Z,959.08
2017-06-08T09:25:07.521Z,959.07
2017-06-08T09:26:08.195Z,959.09
2017-06-08T09:27:07.971Z,959.07
2017-06-08T09:28:07.626Z,959.06
2017-06-08T09:29:07.283Z,959.04
2017-06-08T09:30:07.939Z,959.02
2017-06-08T09:31:07.625Z,959.01
2017-06-08T09:32:07.315Z,959.06
2017-06-08T09:33:07.836Z,959.01
2017-06-08T09:34:07.538Z,958.95
2017-06-08T09:35:07.231Z,958.98
2017-06-08T09:36:07.906Z,958.97
2017-06-08T09:37:07.634Z,958.99
2017-06-08T09:38:08.251Z,958.95
2017-06-08T09:39:07.926Z,959.00
2017-06-08T09:40:07.509Z,958.95
2017-06-08T09:41:08.219Z,958.96
2017-06-08T09:42:07.937Z,958.91
2017-06-08T09:43:07.558Z,958.91
2017-06-08T09:44:07.243Z,958.92
2017-06-08T09:45:08.001Z,958.93
2017-06-08T09:46:07.577Z,958.94
2017-06-08T09:47:07.307Z,958.98
2017-06-08T09:48:07.667Z,958.98
2017-06-08T09:49:07.278Z,958.89
2017-06-08T09:51:09.551Z,958.88
2017-06-08T10:13:07.516Z,958.75
2017-06-08T10:14:09.239Z,958.68
2017-06-08T10:15:07.502Z,958.67
2017-06-08T10:16:08.168Z,958.69
2017-06-08T10:18:07.308Z,958.67
2017-06-08T10:19:07.919Z,958.68
2017-06-08T10:20:08.676Z,958.72
2017-06-08T10:45:12.826Z,958.57
2017-06-08T11:06:08.287Z,958.51
2017-06-08T11:07:08.049Z,958.51
2017-06-08T11:08:14.290Z,958.50
2017-06-08T11:10:08.505Z,958.50
2017-06-08T11:11:15.594Z,958.49
2017-06-08T11:12:08.869Z,958.48
2017-06-08T11:13:07.416Z,958.49
2017-06-08T11:14:09.192Z,958.41
2017-06-08T11:15:07.730Z,958.43
2017-06-08T11:16:08.477Z,958.41
2017-06-08T11:17:09.160Z,958.38
2017-06-08T11:19:07.624Z,958.35
2017-06-08T11:19:11.147Z,958.39
2017-06-08T11:20:09.261Z,958.37
2017-06-08T11:21:08.994Z,958.36
2017-06-08T11:22:07.519Z,958.36
2017-06-08T11:23:08.209Z,958.31
2017-06-08T11:24:08.896Z,958.29
2017-06-08T16:06:08.780Z,955.88
2017-06-08T16:07:07.262Z,955.88
2017-06-08T16:08:07.919Z,955.89
2017-06-08T16:09:08.656Z,955.95
2017-06-08T16:10:09.288Z,955.89
2017-06-08T16:11:08.957Z,955.88
2017-06-08T16:12:08.633Z,955.89
2017-06-08T16:13:09.267Z,955.91
2017-06-08T16:14:08.921Z,955.87
2017-06-08T16:15:08.567Z,955.88
2017-06-08T16:16:08.210Z,955.89
2017-06-08T16:17:08.893Z,955.97
2017-06-08T16:18:08.682Z,955.94
2017-06-08T16:19:08.326Z,955.93
2017-06-08T16:20:07.936Z,955.92
2017-06-08T16:21:08.673Z,955.93
2017-06-08T16:22:08.255Z,955.91
2017-06-08T16:23:08.970Z,955.89
2017-06-08T16:24:08.711Z,955.87
2017-06-08T16:25:09.300Z,955.85
2017-06-08T16:26:08.999Z,955.83
2017-06-08T16:27:07.542Z,955.87
2017-06-08T16:28:09.309Z,955.89
2017-06-08T16:29:08.921Z,955.87
2017-06-08T16:30:08.592Z,955.85
2017-06-08T16:31:08.216Z,955.86
2017-06-08T16:32:08.957Z,955.84
2017-06-08T16:33:08.603Z,955.80
2017-06-08T16:34:09.264Z,955.78
2017-06-08T16:35:08.870Z,955.83
2017-06-08T16:36:07.466Z,955.80
2017-06-08T16:37:09.203Z,955.81
2017-06-08T16:38:07.893Z,955.81
2017-06-08T16:39:08.794Z,955.73
2017-06-08T16:40:09.916Z,955.80
2017-06-08T16:41:09.650Z,955.79
2017-06-08T16:42:08.765Z,955.77
2017-06-08T16:43:08.089Z,955.76
2017-06-08T16:44:08.848Z,955.74
2017-06-08T16:45:07.445Z,955.78
2017-06-08T16:46:09.165Z,955.74
2017-06-08T16:47:08.894Z,955.74
2017-06-08T16:48:14.067Z,955.75
2017-06-08T16:49:09.164Z,955.75
2017-06-08T16:50:08.861Z,955.77
2017-06-08T16:51:08.469Z,955.76
2017-06-08T16:52:09.174Z,955.76
2017-06-08T16:53:08.798Z,955.75
2017-06-08T16:54:08.416Z,955.77
2017-06-08T16:55:09.024Z,955.73
2017-06-08T16:56:08.719Z,955.75
2017-06-08T16:57:07.290Z,955.75
2017-06-08T16:58:09.044Z,955.70
2017-06-08T16:59:08.652Z,955.73
2017-06-08T17:00:08.314Z,955.71
2017-06-08T17:01:08.968Z,955.74
2017-06-08T17:02:08.589Z,955.77
2017-06-08T17:03:08.189Z,955.79
2017-06-08T17:04:08.900Z,955.79
2017-06-08T17:05:08.636Z,955.74
2017-06-08T17:06:09.250Z,955.75
2017-06-08T17:07:07.818Z,955.74
2017-06-08T17:08:07.532Z,955.77
2017-06-08T17:09:08.180Z,955.70
2017-06-08T17:10:07.790Z,955.71
2017-06-08T17:11:07.447Z,955.72
2017-06-08T17:12:08.069Z,955.75
2017-06-08T17:13:07.763Z,955.72
2017-06-08T17:14:07.441Z,955.67
2017-06-08T17:15:08.081Z,955.69
2017-06-08T17:16:07.759Z,955.69
2017-06-08T17:17:07.486Z,955.70
2017-06-08T17:18:07.237Z,955.69
2017-06-08T17:19:13.432Z,955.67
2017-06-08T17:20:07.511Z,955.70
2017-06-08T17:21:08.169Z,955.74
2017-06-08T17:22:08.464Z,955.77
2017-06-08T17:23:09.116Z,955.76
2017-06-08T17:24:07.634Z,955.73
2017-06-08T17:25:07.246Z,955.73
2017-06-08T17:26:07.915Z,955.74
2017-06-08T17:27:07.576Z,955.76
2017-06-08T17:28:07.262Z,955.80
2017-06-08T17:29:08.003Z,955.81
2017-06-08T17:30:07.556Z,955.81
2017-06-08T17:31:08.180Z,955.77
2017-06-08T17:32:07.334Z,955.82
2017-06-08T17:33:08.004Z,955.78
2017-06-08T17:34:07.807Z,955.82
2017-06-08T17:35:07.314Z,955.78
2017-06-08T17:36:08.034Z,955.82
2017-06-08T17:37:07.881Z,955.84
2017-06-08T17:38:07.437Z,955.80
2017-06-08T17:39:08.127Z,955.80
2017-06-08T17:40:07.750Z,955.81
2017-06-08T17:41:07.788Z,955.78
2017-06-08T17:42:08.078Z,955.78
2017-06-08T17:43:08.774Z,955.81
2017-06-08T17:44:07.400Z,955.78
2017-06-08T17:45:07.980Z,955.83
2017-06-08T17:46:07.608Z,955.83
2017-06-08T17:47:08.365Z,955.85
2017-06-08T17:48:07.894Z,955.80
2017-06-08T17:49:07.638Z,955.80
2017-06-08T17:50:07.220Z,955.78
2017-06-08T17:51:07.897Z,955.80
2017-06-08T17:52:07.769Z,955.80
2017-06-08T17:53:07.451Z,955.84
2017-06-08T17:54:08.219Z,955.85
2017-06-08T17:55:07.696Z,955.82
2017-06-08T17:56:07.417Z,955.86
2017-06-08T17:57:07.995Z,955.78
2017-06-08T17:58:07.683Z,955.81
2017-06-08T17:59:07.443Z,955.84
2017-06-08T18:00:08.004Z,955.83
2017-06-08T18:01:07.658Z,955.83
2017-06-08T18:02:07.314Z,955.83
2017-06-08T18:03:07.976Z,955.81
2017-06-08T18:04:08.701Z,955.79
2017-06-08T18:05:07.246Z,955.80
2017-06-08T18:06:07.970Z,955.80
2017-06-08T18:07:07.681Z,955.78
2017-06-08T18:08:07.331Z,955.82
2017-06-08T18:09:08.132Z,955.84
2017-06-08T18:10:07.776Z,955.80
2017-06-08T18:11:07.412Z,955.81
2017-06-08T18:12:08.065Z,955.85
2017-06-08T18:13:07.730Z,955.82
2017-06-08T18:14:07.384Z,955.82
2017-06-08T18:15:08.069Z,955.93
2017-06-08T18:16:07.692Z,955.89
2017-06-08T18:17:07.463Z,955.85
2017-06-08T18:18:09.227Z,955.86
2017-06-08T18:19:07.804Z,955.86
2017-06-08T18:20:07.447Z,955.88
2017-06-08T18:21:08.089Z,955.91
2017-06-08T18:22:07.768Z,955.90
2017-06-08T18:23:07.427Z,955.92
2017-06-08T18:24:08.136Z,955.90
2017-06-08T18:25:07.741Z,955.95
2017-06-08T18:26:07.376Z,955.94
2017-06-08T18:27:08.015Z,955.93
2017-06-08T18:28:08.809Z,955.91
2017-06-08T18:29:07.362Z,955.94
2017-06-08T18:30:09.158Z,955.92
2017-06-08T18:31:07.673Z,955.90
2017-06-08T18:32:08.446Z,955.87
2017-06-08T18:33:08.017Z,955.89
2017-06-08T18:34:07.665Z,955.90
2017-06-08T18:35:07.351Z,955.87
2017-06-08T18:36:08.358Z,955.89
2017-06-08T18:37:08.763Z,955.86
2017-06-08T18:38:08.369Z,955.86
2017-06-08T18:39:18.560Z,955.86
2017-06-08T18:40:07.671Z,955.86
2017-06-08T18:41:07.374Z,955.85
2017-06-08T18:42:07.982Z,955.86
2017-06-08T18:43:07.641Z,955.84
2017-06-08T18:44:07.361Z,955.84
2017-06-08T18:45:07.992Z,955.83
2017-06-08T18:46:07.657Z,955.85
2017-06-08T18:47:07.285Z,955.88
2017-06-08T18:48:07.928Z,955.84
2017-06-08T18:49:07.550Z,955.87
2017-06-08T18:50:07.220Z,955.88
2017-06-08T18:51:07.942Z,955.90
2017-06-08T18:52:07.560Z,955.88
2017-06-08T18:53:07.259Z,955.88
2017-06-08T18:54:07.946Z,955.89
2017-06-08T18:55:07.879Z,955.88
2017-06-08T18:56:07.337Z,955.90
2017-06-08T18:57:07.929Z,955.89
2017-06-08T18:58:07.583Z,955.89
2017-06-08T18:59:07.261Z,955.89
2017-06-08T19:00:07.867Z,955.88
2017-06-08T19:01:07.499Z,955.90
2017-06-08T19:02:08.153Z,955.90
2017-06-08T19:03:07.844Z,955.87
2017-06-08T19:04:07.481Z,955.86
2017-06-08T19:05:09.237Z,955.87
2017-06-08T19:06:07.800Z,955.86
2017-06-08T19:07:07.420Z,955.89
2017-06-08T19:08:08.087Z,955.89
2017-06-08T19:09:08.818Z,955.94
2017-06-08T19:10:07.430Z,955.93
2017-06-08T19:11:08.106Z,955.91
2017-06-08T19:12:07.688Z,955.94
2017-06-08T19:13:08.422Z,955.94
2017-06-08T19:14:07.973Z,955.94
2017-06-08T19:15:07.721Z,955.94
2017-06-08T19:20:08.469Z,955.99
2017-06-08T19:21:14.581Z,955.97
2017-06-08T19:24:08.076Z,955.99
2017-06-08T19:26:09.040Z,955.99
2017-06-08T19:31:10.933Z,956.05
2017-06-08T19:33:13.608Z,956.03
2017-06-08T19:34:08.481Z,956.03
2017-06-08T19:35:09.095Z,956.04
2017-06-08T19:36:07.667Z,956.05
2017-06-08T19:37:07.374Z,956.06
2017-06-08T19:38:07.957Z,956.06
2017-06-08T19:39:08.735Z,956.12
2017-06-08T19:40:08.378Z,956.13
2017-06-08T19:41:09.096Z,956.08
2017-06-08T19:42:08.749Z,956.12
2017-06-08T19:43:07.316Z,956.09
2017-06-08T19:44:07.887Z,956.12
2017-06-08T19:45:07.498Z,956.13
2017-06-08T19:46:08.179Z,956.13
2017-06-08T19:47:07.874Z,956.13
2017-06-08T19:48:08.586Z,956.19
2017-06-08T19:49:08.184Z,956.16
2017-06-08T19:52:08.380Z,956.15